Map

Track Data

SID SEASON NUMBER BASIN SUBBASIN NAME ISO_TIME NATURE LAT LON WMO_WIND WMO_PRES WMO_AGENCY TRACK_TYPE DIST2LAND LANDFALL IFLAG USA_AGENCY USA_ATCF_ID USA_LAT USA_LON USA_RECORD USA_STATUS USA_WIND USA_PRES USA_SSHS USA_R34_NE USA_R34_SE USA_R34_SW USA_R34_NW USA_R50_NE USA_R50_SE USA_R50_SW USA_R50_NW USA_R64_NE USA_R64_SE USA_R64_SW USA_R64_NW USA_POCI USA_ROCI USA_RMW USA_EYE TOKYO_LAT TOKYO_LON TOKYO_GRADE TOKYO_WIND TOKYO_PRES TOKYO_R50_DIR TOKYO_R50_LONG TOKYO_R50_SHORT TOKYO_R30_DIR TOKYO_R30_LONG TOKYO_R30_SHORT TOKYO_LAND CMA_LAT CMA_LON CMA_CAT CMA_WIND CMA_PRES HKO_LAT HKO_LON HKO_CAT HKO_WIND HKO_PRES NEWDELHI_LAT NEWDELHI_LON NEWDELHI_GRADE NEWDELHI_WIND NEWDELHI_PRES NEWDELHI_CI NEWDELHI_DP NEWDELHI_POCI REUNION_LAT REUNION_LON REUNION_TYPE REUNION_WIND REUNION_PRES REUNION_TNUM REUNION_CI REUNION_RMW REUNION_R34_NE REUNION_R34_SE REUNION_R34_SW REUNION_R34_NW REUNION_R50_NE REUNION_R50_SE REUNION_R50_SW REUNION_R50_NW REUNION_R64_NE REUNION_R64_SE REUNION_R64_SW REUNION_R64_NW BOM_LAT BOM_LON BOM_TYPE BOM_WIND BOM_PRES BOM_TNUM BOM_CI BOM_RMW BOM_R34_NE BOM_R34_SE BOM_R34_SW BOM_R34_NW BOM_R50_NE BOM_R50_SE BOM_R50_SW BOM_R50_NW BOM_R64_NE BOM_R64_SE BOM_R64_SW BOM_R64_NW BOM_ROCI BOM_POCI BOM_EYE BOM_POS_METHOD BOM_PRES_METHOD NADI_LAT NADI_LON NADI_CAT NADI_WIND NADI_PRES WELLINGTON_LAT WELLINGTON_LON WELLINGTON_WIND WELLINGTON_PRES DS824_LAT DS824_LON DS824_STAGE DS824_WIND DS824_PRES TD9636_LAT TD9636_LON TD9636_STAGE TD9636_WIND TD9636_PRES TD9635_LAT TD9635_LON TD9635_WIND TD9635_PRES TD9635_ROCI NEUMANN_LAT NEUMANN_LON NEUMANN_CLASS NEUMANN_WIND NEUMANN_PRES MLC_LAT MLC_LON MLC_CLASS MLC_WIND MLC_PRES USA_GUST BOM_GUST BOM_GUST_PER REUNION_GUST REUNION_GUST_PER USA_SEAHGT USA_SEARAD_NE USA_SEARAD_SE USA_SEARAD_SW USA_SEARAD_NW STORM_SPEED STORM_DIR
1918357N13132 1918 69 WP MM NOT_NAMED 1918-12-22 22:00:00 NR 13.3000 131.700 main 683 673 __________O___ -1 13.3000 131.700 7 4 265
1918357N13132 1918 69 WP MM NOT_NAMED 1918-12-23 00:00:00 NR 13.2878 131.553 main 673 641 __________P___ -1 13.2878 131.553 7 4 265
1918357N13132 1918 69 WP MM NOT_NAMED 1918-12-23 03:00:00 NR 13.2677 131.332 main 641 618 __________P___ -1 13.2677 131.332 7 4 264
1918357N13132 1918 69 WP MM NOT_NAMED 1918-12-23 06:00:00 NR 13.2433 131.107 main 618 596 __________P___ -1 13.2433 131.107 7 4 263
1918357N13132 1918 69 WP MM NOT_NAMED 1918-12-23 09:00:00 NR 13.2123 130.878 main 596 586 __________P___ -1 13.2123 130.878 7 5 262
1918357N13132 1918 69 WP MM NOT_NAMED 1918-12-23 10:00:00 NR 13.2000 130.800 main 586 564 __________O___ -1 13.2000 130.800 7 5 260
1918357N13132 1918 69 WP MM NOT_NAMED 1918-12-23 12:00:00 NR 13.1723 130.642 main 564 541 __________P___ -1 13.1723 130.642 7 5 259
1918357N13132 1918 69 WP MM NOT_NAMED 1918-12-23 15:00:00 NR 13.1245 130.398 main 541 509 __________P___ -1 13.1245 130.398 7 5 258
1918357N13132 1918 69 WP MM NOT_NAMED 1918-12-23 18:00:00 NR 13.0720 130.147 main 509 486 __________P___ -1 13.0720 130.147 7 5 258
1918357N13132 1918 69 WP MM NOT_NAMED 1918-12-23 21:00:00 NR 13.0179 129.888 main 486 475 __________P___ -1 13.0179 129.888 7 5 258
1918357N13132 1918 69 WP MM NOT_NAMED 1918-12-23 22:00:00 NR 13.0000 129.800 main 475 454 __________O___ -1 13.0000 129.800 7 5 258
1918357N13132 1918 69 WP MM NOT_NAMED 1918-12-24 00:00:00 NR 12.9614 129.617 main 454 420 __________P___ -1 12.9614 129.617 7 6 258
1918357N13132 1918 69 WP MM NOT_NAMED 1918-12-24 03:00:00 NR 12.9035 129.336 main 420 398 __________P___ -1 12.9035 129.336 7 6 259
1918357N13132 1918 69 WP MM NOT_NAMED 1918-12-24 06:00:00 NR 12.8509 129.056 main 398 364 __________P___ -1 12.8509 129.056 7 5 260
1918357N13132 1918 69 WP MM NOT_NAMED 1918-12-24 09:00:00 NR 12.8100 128.786 main 364 354 __________P___ -1 12.8100 128.786 7 5 262
1918357N13132 1918 69 WP MM NOT_NAMED 1918-12-24 10:00:00 NR 12.8000 128.700 main 354 332 __________O___ -1 12.8000 128.700 7 5 265
1918357N13132 1918 69 WP MM NOT_NAMED 1918-12-24 12:00:00 NR 12.7885 128.544 main 332 311 __________P___ -1 12.7885 128.544 7 4 267
1918357N13132 1918 69 WP MM NOT_NAMED 1918-12-24 15:00:00 NR 12.7838 128.322 main 311 290 __________P___ -1 12.7838 128.322 7 4 270
1918357N13132 1918 69 WP MM NOT_NAMED 1918-12-24 18:00:00 NR 12.7889 128.105 main 290 269 __________P___ -1 12.7889 128.105 7 4 272
1918357N13132 1918 69 WP MM NOT_NAMED 1918-12-24 21:00:00 NR 12.7975 127.879 main 269 258 __________P___ -1 12.7975 127.879 7 4 272
1918357N13132 1918 69 WP MM NOT_NAMED 1918-12-24 22:00:00 NR 12.8000 127.800 main 258 237 __________O___ -1 12.8000 127.800 7 5 270
1918357N13132 1918 69 WP MM NOT_NAMED 1918-12-25 00:00:00 NR 12.7973 127.631 main 237 217 __________P___ -1 12.7973 127.631 7 5 269
1918357N13132 1918 69 WP MM NOT_NAMED 1918-12-25 03:00:00 NR 12.7933 127.364 main 217 186 __________P___ -1 12.7933 127.364 7 5 269
1918357N13132 1918 69 WP MM NOT_NAMED 1918-12-25 06:00:00 NR 12.7920 127.085 main 186 156 __________P___ -1 12.7920 127.085 7 6 270
1918357N13132 1918 69 WP MM NOT_NAMED 1918-12-25 09:00:00 NR 12.7966 126.797 main 156 146 __________P___ -1 12.7966 126.797 7 6 271
1918357N13132 1918 69 WP MM NOT_NAMED 1918-12-25 10:00:00 NR 12.8000 126.700 main 146 137 __________O___ -1 12.8000 126.700 7 5 276
1918357N13132 1918 69 WP MM NOT_NAMED 1918-12-25 12:00:00 NR 12.8209 126.550 main 137 117 __________P___ -1 12.8209 126.550 7 5 279
1918357N13132 1918 69 WP MM NOT_NAMED 1918-12-25 15:00:00 NR 12.8589 126.321 main 117 94 __________P___ -1 12.8589 126.321 7 5 278
1918357N13132 1918 69 WP MM NOT_NAMED 1918-12-25 18:00:00 NR 12.8915 126.040 main 94 70 __________P___ -1 12.8915 126.040 7 6 274
1918357N13132 1918 69 WP MM NOT_NAMED 1918-12-25 21:00:00 NR 12.9033 125.658 main 70 55 __________P___ -1 12.9033 125.658 7 8 271
1918357N13132 1918 69 WP MM NOT_NAMED 1918-12-25 22:00:00 NR 12.9000 125.500 main 55 44 __________O___ -1 12.9000 125.500 3 11 268
1918357N13132 1918 69 WP MM NOT_NAMED 1918-12-26 00:00:00 NR 12.8816 125.093 main 44 32 __________P___ -1 12.8816 125.093 3 13 266
1918357N13132 1918 69 WP MM NOT_NAMED 1918-12-26 03:00:00 NR 12.8284 124.374 main 32 0 __________P___ -1 12.8284 124.374 3 15 265
1918357N13132 1918 69 WP MM NOT_NAMED 1918-12-26 06:00:00 NR 12.7469 123.596 main 15 15 __________P___ -1 12.7469 123.596 3 15 263
1918357N13132 1918 69 WP MM NOT_NAMED 1918-12-26 09:00:00 NR 12.6404 122.836 main 55 55 __________P___ -1 12.6404 122.836 3 15 261
1918357N13132 1918 69 WP MM NOT_NAMED 1918-12-26 10:00:00 NR 12.6000 122.600 main 67 66 __________O___ -1 12.6000 122.600 4 13 259
1918357N13132 1918 69 WP MM NOT_NAMED 1918-12-26 12:00:00 NR 12.5139 122.197 main 66 21 __________P___ -1 12.5139 122.197 4 12 256
1918357N13132 1918 69 WP MM NOT_NAMED 1918-12-26 15:00:00 NR 12.3663 121.642 main 21 0 __________P___ -1 12.3663 121.642 4 11 254
1918357N13132 1918 69 WP MM NOT_NAMED 1918-12-26 18:00:00 NR 12.2077 121.133 main 0 0 __________P___ -1 12.2077 121.133 4 10 252
1918357N13132 1918 69 WP MM NOT_NAMED 1918-12-26 21:00:00 NR 12.0501 120.655 main 44 58 __________P___ -1 12.0501 120.655 4 10 251
1918357N13132 1918 69 WP MM NOT_NAMED 1918-12-26 22:00:00 NR 12.0000 120.500 main 69 69 __________O___ -1 12.0000 120.500 4 10 253
1918357N13132 1918 69 WP MM NOT_NAMED 1918-12-27 00:00:00 NR 11.9081 120.178 main 93 57 __________P___ -1 11.9081 120.178 4 10 254
1918357N13132 1918 69 WP MM NOT_NAMED 1918-12-27 03:00:00 NR 11.7767 119.713 main 57 44 __________P___ -1 11.7767 119.713 4 9 254
1918357N13132 1918 69 WP MM NOT_NAMED 1918-12-27 06:00:00 NR 11.6530 119.268 main 49 46 __________P___ -1 11.6530 119.268 4 9 254
1918357N13132 1918 69 WP MM NOT_NAMED 1918-12-27 09:00:00 NR 11.5370 118.840 main 73 73 __________P___ -1 11.5370 118.840 4 9 255
1918357N13132 1918 69 WP MM NOT_NAMED 1918-12-27 10:00:00 NR 11.5000 118.700 main 83 83 __________O___ -1 11.5000 118.700 4 8 255
1918357N13132 1918 69 WP MM NOT_NAMED 1918-12-27 12:00:00 NR 11.4299 118.433 main 111 111 __________P___ -1 11.4299 118.433 4 8 255
1918357N13132 1918 69 WP MM NOT_NAMED 1918-12-27 15:00:00 NR 11.3314 118.044 main 148 148 __________P___ -1 11.3314 118.044 4 8 256
1918357N13132 1918 69 WP MM NOT_NAMED 1918-12-27 18:00:00 NR 11.2353 117.654 main 172 180 __________P___ -1 11.2353 117.654 4 8 256
1918357N13132 1918 69 WP MM NOT_NAMED 1918-12-27 21:00:00 NR 11.1353 117.244 main 207 207 __________P___ -1 11.1353 117.244 4 8 256
1918357N13132 1918 69 WP MM NOT_NAMED 1918-12-27 22:00:00 NR 11.1000 117.100 main 217 217 __________O___ -1 11.1000 117.100 4 9 256
1918357N13132 1918 69 WP MM NOT_NAMED 1918-12-28 00:00:00 NR 11.0251 116.782 main 229 229 __________P___ -1 11.0251 116.782 4 10 256
1918357N13132 1918 69 WP MM NOT_NAMED 1918-12-28 03:00:00 NR 10.9064 116.279 main 251 251 __________P___ -1 10.9064 116.279 4 10 256
1918357N13132 1918 69 WP MM NOT_NAMED 1918-12-28 06:00:00 NR 10.7801 115.765 main 282 289 __________P___ -1 10.7801 115.765 4 10 255
1918357N13132 1918 69 WP MM NOT_NAMED 1918-12-28 09:00:00 NR 10.6463 115.262 main 307 316 __________P___ -1 10.6463 115.262 4 10 255
1918357N13132 1918 69 WP MM NOT_NAMED 1918-12-28 10:00:00 NR 10.6000 115.100 main 324 324 __________O___ -1 10.6000 115.100 2 10 253
1918357N13132 1918 69 WP MM NOT_NAMED 1918-12-28 12:00:00 NR 10.5081 114.800 main 346 346 __________P___ -1 10.5081 114.800 2 9 252
1918357N13132 1918 69 WP MM NOT_NAMED 1918-12-28 15:00:00 NR 10.3642 114.368 main 376 380 __________P___ -1 10.3642 114.368 2 9 251
1918357N13132 1918 69 WP MM NOT_NAMED 1918-12-28 18:00:00 NR 10.2130 113.951 main 404 414 __________P___ -1 10.2130 113.951 2 9 249
1918357N13132 1918 69 WP MM NOT_NAMED 1918-12-28 21:00:00 NR 10.0545 113.538 main 449 445 __________P___ -1 10.0545 113.538 2 9 249
1918357N13132 1918 69 WP MM NOT_NAMED 1918-12-28 22:00:00 NR 10.0000 113.400 main 456 456 __________O___ -1 10.0000 113.400 2 9 249
1918357N13132 1918 69 WP MM NOT_NAMED 1918-12-29 00:00:00 NR 9.89164 113.106 main 471 437 __________P___ -1 9.89164 113.106 2 9 249
1918357N13132 1918 69 WP MM NOT_NAMED 1918-12-29 03:00:00 NR 9.72290 112.665 main 443 409 __________P___ -1 9.72290 112.665 2 9 248
1918357N13132 1918 69 WP MM NOT_NAMED 1918-12-29 06:00:00 NR 9.54667 112.235 main 409 379 __________P___ -1 9.54667 112.235 2 9 246
1918357N13132 1918 69 WP MM NOT_NAMED 1918-12-29 09:00:00 NR 9.36292 111.828 main 379 377 __________P___ -1 9.36292 111.828 2 9 245
1918357N13132 1918 69 WP MM NOT_NAMED 1918-12-29 10:00:00 NR 9.30000 111.700 main 377 368 __________O___ -1 9.30000 111.700 2 8 242
1918357N13132 1918 69 WP MM NOT_NAMED 1918-12-29 12:00:00 NR 9.17475 111.471 main 368 360 __________P___ -1 9.17475 111.471 2 8 239
1918357N13132 1918 69 WP MM NOT_NAMED 1918-12-29 15:00:00 NR 8.98080 111.153 main 360 351 __________P___ -1 8.98080 111.153 2 7 238
1918357N13132 1918 69 WP MM NOT_NAMED 1918-12-29 18:00:00 NR 8.77960 110.843 main 351 348 __________P___ -1 8.77960 110.843 2 8 237
1918357N13132 1918 69 WP MM NOT_NAMED 1918-12-29 21:00:00 NR 8.57113 110.517 main 351 351 __________P___ -1 8.57113 110.517 2 8 238
1918357N13132 1918 69 WP MM NOT_NAMED 1918-12-29 22:00:00 NR 8.50000 110.400 main 354 342 __________O___ -1 8.50000 110.400 2 9 240
1918357N13132 1918 69 WP MM NOT_NAMED 1918-12-30 00:00:00 NR 8.35049 110.137 main 342 342 __________P___ -1 8.35049 110.137 2 9 241
1918357N13132 1918 69 WP MM NOT_NAMED 1918-12-30 03:00:00 NR 8.11978 109.717 main 345 339 __________P___ -1 8.11978 109.717 2 10 241
1918357N13132 1918 69 WP MM NOT_NAMED 1918-12-30 06:00:00 NR 7.88966 109.280 main 344 329 __________P___ -1 7.88966 109.280 2 10 243
1918357N13132 1918 69 WP MM NOT_NAMED 1918-12-30 09:00:00 NR 7.66952 108.843 main 329 329 __________P___ -1 7.66952 108.843 2 10 243
1918357N13132 1918 69 WP MM NOT_NAMED 1918-12-30 10:00:00 NR 7.60000 108.700 main 329 314 __________O___ -1 7.60000 108.700 2 9 244
1918357N13132 1918 69 WP MM NOT_NAMED 1918-12-30 12:00:00 NR 7.46809 108.420 main 314 302 __________P___ -1 7.46809 108.420 2 9 245
1918357N13132 1918 69 WP MM NOT_NAMED 1918-12-30 15:00:00 NR 7.28538 108.013 main 302 294 __________P___ -1 7.28538 108.013 2 9 246
1918357N13132 1918 69 WP MM NOT_NAMED 1918-12-30 18:00:00 NR 7.11574 107.617 main 299 290 __________P___ -1 7.11574 107.617 2 8 247
1918357N13132 1918 69 WP MM NOT_NAMED 1918-12-30 21:00:00 NR 6.95345 107.229 main 290 291 __________P___ -1 6.95345 107.229 2 8 247
1918357N13132 1918 69 WP MM NOT_NAMED 1918-12-30 22:00:00 NR 6.90000 107.100 main 291 __________O___ -1 6.90000 107.100 7 8 247

Digital Typhoon Data and Search

About IBTrACS Database

This database is a web-friendly format of International Best Track Archive for Climate Stewardship (IBTrACS), a global best track data archive curated by NOAA dating back to 1842.

Updated: 2021-10-19